Terminal Aerodrome Forecast
Issued by NWS

Home | Current Version | Previous Version | Text Only | Print | Product List | Glossary On
Versions: 1 2 3 4 5 6 7 8 9 10 11 12 13 14 15 16 17 18 19 20
000
FTUS42 KMLB 022234 AAB
TAFSUA
TAF AMD
KSUA 022234Z 0223/0318 13014G20KT P6SM FEW040 BKN250
     FM030200 16005KT P6SM BKN250
     FM031400 20008KT P6SM SCT030 BKN060=

USA.gov is the U.S. government's official web portal to all federal, state and local government web resources and services.